Time;durP1;ratioP1;P1;durP2;ratioP2;P2;SDS_P1;SDS_P2;PMS_P1;PMS_P2;Temp;Humidity;BMP_temperature;BMP_pressure;BME280_temperature;BME280_humidity;BME280_pressure;Samples;Min_cycle;Max_cycle;Signal;HPM_P1;HPM_P2
2021/04/24 00:01:55;;;;;;;18.95;11.60;;;;;;;2.41;70.62;101557.53;5007530;28;20042;-77
2021/04/24 00:04:20;;;;;;;22.20;11.90;;;;;;;2.36;71.07;101559.09;5007923;28;20045;-78
2021/04/24 00:06:46;;;;;;;19.10;10.55;;;;;;;2.34;70.29;101547.69;5020751;28;20085;-78
2021/04/24 00:09:11;;;;;;;18.55;10.40;;;;;;;2.32;70.58;101550.22;5009890;28;20050;-78
2021/04/24 00:11:37;;;;;;;17.27;9.95;;;;;;;2.21;71.44;101561.00;5006579;28;20027;-78
2021/04/24 00:14:03;;;;;;;19.35;11.00;;;;;;;2.06;72.04;101562.09;5004535;28;20042;-77
2021/04/24 00:16:28;;;;;;;15.77;10.57;;;;;;;2.08;71.71;101559.56;5009344;28;20486;-78
2021/04/24 00:18:54;;;;;;;20.25;10.65;;;;;;;2.03;72.04;101559.38;5007380;28;20038;-78
2021/04/24 00:21:19;;;;;;;23.13;11.85;;;;;;;2.01;72.64;101558.41;5005791;28;20030;-78
2021/04/24 00:23:45;;;;;;;20.95;12.02;;;;;;;2.02;73.04;101559.28;5004927;28;20126;-78
2021/04/24 00:26:10;;;;;;;23.33;12.13;;;;;;;2.06;72.79;101550.81;4992905;28;20033;-78
2021/04/24 00:28:36;;;;;;;17.77;11.52;;;;;;;2.10;73.01;101553.63;5023080;28;20210;-78
2021/04/24 00:31:02;;;;;;;20.83;11.85;;;;;;;2.12;72.34;101546.78;5008478;28;20042;-79
2021/04/24 00:33:27;;;;;;;26.30;13.13;;;;;;;2.15;72.88;101541.69;5010810;28;20048;-78
2021/04/24 00:35:53;;;;;;;18.95;11.77;;;;;;;2.17;72.61;101549.56;5010043;28;20030;-78
2021/04/24 00:38:19;;;;;;;17.05;9.98;;;;;;;2.09;73.34;101544.00;4989992;28;20084;-77
2021/04/24 00:40:44;;;;;;;22.25;12.18;;;;;;;2.05;73.32;101555.13;5002176;28;20117;-77
2021/04/24 00:43:15;;;;;;;18.20;10.38;;;;;;;2.04;72.71;101548.13;5002616;28;20037;-77
2021/04/24 00:45:41;;;;;;;20.65;11.25;;;;;;;1.98;73.53;101547.84;5003037;28;20029;-77
2021/04/24 00:48:07;;;;;;;17.98;11.25;;;;;;;1.99;73.47;101549.63;5003721;28;20034;-77
2021/04/24 00:50:35;;;;;;;19.17;12.25;;;;;;;1.98;72.84;101553.06;5008076;28;20033;-78
2021/04/24 00:53:02;;;;;;;23.05;13.10;;;;;;;1.98;73.11;101553.06;5004465;28;20042;-78
2021/04/24 00:55:27;;;;;;;20.20;11.00;;;;;;;1.93;73.32;101545.03;5006874;28;20037;-77
2021/04/24 00:57:53;;;;;;;16.07;10.43;;;;;;;1.92;73.76;101550.19;5002732;28;20033;-77
2021/04/24 01:00:24;;;;;;;19.67;10.85;;;;;;;1.84;73.52;101546.34;5002198;28;20482;-77
2021/04/24 01:02:50;;;;;;;19.65;9.57;;;;;;;1.81;73.45;101554.00;5003777;28;20121;-77
2021/04/24 01:05:21;;;;;;;17.38;9.07;;;;;;;1.78;72.90;101546.94;5003391;28;20045;-78
2021/04/24 01:07:46;;;;;;;18.52;9.07;;;;;;;1.75;73.69;101547.69;5007445;28;20037;-77
2021/04/24 01:10:13;;;;;;;15.38;8.60;;;;;;;1.73;73.07;101546.75;5004067;28;20441;-77
2021/04/24 01:12:40;;;;;;;18.83;10.02;;;;;;;1.68;73.18;101548.25;5006750;28;20104;-78
2021/04/24 01:15:07;;;;;;;20.20;11.27;;;;;;;1.63;72.84;101543.66;5004686;28;20100;-77
2021/04/24 01:17:32;;;;;;;16.17;9.57;;;;;;;1.59;73.11;101547.81;5006051;28;20026;-77
2021/04/24 01:19:58;;;;;;;18.60;10.20;;;;;;;1.58;73.63;101550.34;5003273;28;20383;-77
2021/04/24 01:22:23;;;;;;;16.77;9.35;;;;;;;1.55;73.46;101543.31;5006261;28;20034;-78
2021/04/24 01:24:49;;;;;;;18.35;9.95;;;;;;;1.46;73.08;101545.47;5005176;28;20026;-77
2021/04/24 01:27:15;;;;;;;18.40;10.60;;;;;;;1.42;73.40;101539.22;5004707;28;20042;-78
2021/04/24 01:29:42;;;;;;;16.80;9.67;;;;;;;1.39;73.50;101545.97;5006899;28;20030;-78
2021/04/24 01:32:09;;;;;;;19.95;10.68;;;;;;;1.20;74.03;101542.50;5006323;28;20045;-78
2021/04/24 01:34:34;;;;;;;20.20;10.70;;;;;;;1.05;74.78;101541.78;5009689;28;20046;-77
2021/04/24 01:37:01;;;;;;;20.92;10.70;;;;;;;1.06;73.76;101535.75;5005816;28;20030;-78
2021/04/24 01:39:28;;;;;;;19.83;10.27;;;;;;;1.06;74.19;101531.44;5011635;28;20437;-78
2021/04/24 01:41:53;;;;;;;18.40;10.48;;;;;;;1.06;73.69;101527.97;5011415;28;20125;-78
2021/04/24 01:44:19;;;;;;;13.50;8.90;;;;;;;1.07;73.82;101533.25;5014789;28;20069;-78
2021/04/24 01:46:44;;;;;;;25.17;14.30;;;;;;;1.05;74.47;101523.59;5014400;28;20035;-78
2021/04/24 01:49:11;;;;;;;17.57;9.60;;;;;;;1.01;73.79;101529.44;5030720;28;20040;-78
2021/04/24 01:51:36;;;;;;;18.97;10.07;;;;;;;0.99;73.87;101521.56;5010067;28;20034;-78
2021/04/24 01:54:02;;;;;;;15.93;9.70;;;;;;;0.97;74.62;101518.03;5031279;28;20066;-78
2021/04/24 01:56:41;;;;;;;16.90;10.03;;;;;;;0.92;75.56;101524.72;5013612;28;20038;-78
2021/04/24 01:59:06;;;;;;;18.63;10.33;;;;;;;0.92;75.70;101513.38;5013975;28;20034;-78
2021/04/24 02:01:31;;;;;;;23.10;11.87;;;;;;;0.88;75.76;101513.25;5015723;28;20089;-78
2021/04/24 02:03:57;;;;;;;15.73;9.73;;;;;;;0.92;75.53;101510.78;5013732;28;20060;-77
2021/04/24 02:06:24;;;;;;;20.73;12.13;;;;;;;0.95;75.16;101514.44;5014226;28;20446;-78
2021/04/24 02:08:49;;;;;;;16.73;9.83;;;;;;;0.95;75.72;101508.38;5013155;28;20039;-77
2021/04/24 02:11:15;;;;;;;19.47;11.23;;;;;;;0.89;76.31;101514.13;5011059;28;20089;-78
2021/04/24 02:13:42;;;;;;;15.40;10.00;;;;;;;0.90;75.52;101515.06;5011456;28;20081;-78
2021/04/24 02:16:09;;;;;;;23.03;11.47;;;;;;;0.87;75.39;101508.00;5010196;28;20048;-78
2021/04/24 02:18:34;;;;;;;20.57;9.40;;;;;;;0.75;76.80;101516.06;5012484;28;20038;-77
2021/04/24 02:21:00;;;;;;;19.30;11.83;;;;;;;0.67;76.36;101512.19;5009083;28;20031;-78
2021/04/24 02:23:25;;;;;;;20.00;10.60;;;;;;;0.67;76.13;101511.31;5012456;28;20041;-78
2021/04/24 02:25:51;;;;;;;19.47;9.93;;;;;;;0.60;76.06;101515.31;5008280;28;20046;-77
2021/04/24 02:28:17;;;;;;;24.00;12.47;;;;;;;0.52;76.70;101517.50;5010007;28;20081;-77
2021/04/24 02:30:43;;;;;;;18.10;10.97;;;;;;;0.52;76.84;101516.63;5007280;28;20034;-77
2021/04/24 02:33:09;;;;;;;18.70;9.83;;;;;;;0.53;76.64;101514.13;5008815;28;20034;-77
2021/04/24 02:35:56;;;;;;;20.27;11.80;;;;;;;0.57;76.64;101526.44;5007022;28;20114;-77
2021/04/24 02:38:28;;;;;;;17.30;10.23;;;;;;;0.58;76.70;101516.97;5022082;28;20042;-77
2021/04/24 02:40:55;;;;;;;16.80;10.40;;;;;;;0.54;76.42;101517.59;5007114;28;20045;-77
2021/04/24 02:43:21;;;;;;;17.13;7.77;;;;;;;0.56;76.36;101523.78;5007948;28;20494;-77
2021/04/24 02:45:47;;;;;;;26.00;9.97;;;;;;;0.56;76.97;101518.56;5006909;28;20034;-77
2021/04/24 02:48:13;;;;;;;13.47;8.97;;;;;;;0.61;77.31;101514.50;5008519;28;20061;-77
2021/04/24 02:50:39;;;;;;;16.93;9.67;;;;;;;0.59;77.42;101511.81;5009921;28;20041;-77
2021/04/24 02:53:05;;;;;;;17.87;10.53;;;;;;;0.56;77.63;101510.78;5010547;28;20030;-78
2021/04/24 02:55:30;;;;;;;21.33;11.00;;;;;;;0.58;77.28;101515.25;5010105;28;20034;-77
2021/04/24 02:57:56;;;;;;;22.53;9.83;;;;;;;0.55;77.19;101508.97;5011122;28;20042;-78
2021/04/24 03:00:22;;;;;;;18.20;10.77;;;;;;;0.59;76.78;101508.34;5010095;28;20034;-77
2021/04/24 03:02:58;;;;;;;17.17;10.43;;;;;;;0.56;77.71;101515.97;5003528;28;20041;-77
2021/04/24 03:05:23;;;;;;;15.23;9.50;;;;;;;0.58;77.02;101511.75;5004336;28;20535;-77
2021/04/24 03:07:49;;;;;;;23.60;12.27;;;;;;;0.57;77.19;101505.66;5018049;28;20070;-77
2021/04/24 03:10:14;;;;;;;20.17;10.70;;;;;;;0.58;76.45;101511.75;5006636;28;20123;-78
2021/04/24 03:12:39;;;;;;;17.93;9.57;;;;;;;0.57;76.28;101512.56;5006172;28;20073;-78
2021/04/24 03:15:06;;;;;;;19.93;10.23;;;;;;;0.52;76.31;101506.25;5023920;28;20038;-77
2021/04/24 03:17:32;;;;;;;14.73;8.70;;;;;;;0.44;76.39;101514.53;5010833;28;20045;-77
2021/04/24 03:19:57;;;;;;;16.30;8.30;;;;;;;0.39;76.03;101516.03;5003679;28;20046;-78
2021/04/24 03:22:23;;;;;;;16.03;10.27;;;;;;;0.34;76.79;101517.50;5006365;28;20064;-77
2021/04/24 03:24:48;;;;;;;18.10;8.87;;;;;;;0.32;76.60;101518.25;5007586;28;20041;-77
2021/04/24 03:27:13;;;;;;;14.30;7.43;;;;;;;0.24;77.55;101520.44;5017723;28;20046;-78
2021/04/24 03:29:39;;;;;;;19.20;9.30;;;;;;;0.19;77.81;101517.59;5006224;28;20117;-77
2021/04/24 03:32:04;;;;;;;19.00;9.60;;;;;;;0.15;78.22;101519.94;5005280;28;20037;-77
2021/04/24 03:34:30;;;;;;;18.43;8.87;;;;;;;0.21;79.50;101528.97;5007293;28;20034;-78
2021/04/24 03:36:55;;;;;;;21.77;9.90;;;;;;;0.27;80.41;101520.59;5006770;28;20405;-78
2021/04/24 03:39:20;;;;;;;24.00;10.23;;;;;;;0.41;79.72;101524.75;5006707;28;20045;-78
2021/04/24 03:41:46;;;;;;;20.10;9.73;;;;;;;0.49;79.37;101519.06;4990493;28;20038;-77
2021/04/24 03:44:11;;;;;;;16.73;9.73;;;;;;;0.55;79.44;101522.88;5008570;28;20038;-78
2021/04/24 03:46:37;;;;;;;21.33;10.40;;;;;;;0.62;80.20;101530.16;5008787;28;20050;-78
2021/04/24 03:49:02;;;;;;;15.93;8.43;;;;;;;0.67;nan;101535.59;5009147;28;20069;-78
2021/04/24 03:51:28;;;;;;;17.17;8.33;;;;;;;0.74;79.84;101531.59;5010733;28;20033;-77
2021/04/24 03:53:53;;;;;;;19.23;9.03;;;;;;;0.79;79.47;101522.31;5007573;28;20098;-78
2021/04/24 03:56:18;;;;;;;17.33;7.93;;;;;;;0.82;79.37;101528.56;5010197;28;20042;-78
2021/04/24 03:58:44;;;;;;;15.37;8.23;;;;;;;0.87;79.55;101527.06;5013758;28;20125;-78
2021/04/24 04:01:09;;;;;;;14.70;8.37;;;;;;;0.90;79.67;101530.66;5008911;28;20069;-78
2021/04/24 04:03:34;;;;;;;22.40;8.97;;;;;;;0.93;79.19;101525.59;5024727;28;20042;-77
2021/04/24 04:06:00;;;;;;;16.67;9.03;;;;;;;0.94;79.52;101525.66;5008874;28;20030;-78
2021/04/24 04:08:25;;;;;;;16.67;8.10;;;;;;;0.94;79.65;101537.75;5009441;28;20041;-78
2021/04/24 04:10:50;;;;;;;17.87;8.93;;;;;;;1.01;79.07;101535.53;5009744;28;20034;-77
2021/04/24 04:13:16;;;;;;;14.57;8.57;;;;;;;1.06;78.93;101533.16;5009933;28;20077;-78
2021/04/24 04:15:43;;;;;;;15.17;7.87;;;;;;;1.10;79.30;101535.06;5010433;28;20038;-78
2021/04/24 04:18:12;;;;;;;15.33;8.17;;;;;;;1.14;78.87;101530.94;5010103;28;20091;-78
2021/04/24 04:20:44;;;;;;;16.20;7.60;;;;;;;1.18;78.49;101533.75;5007385;28;20053;-78
2021/04/24 04:23:11;;;;;;;17.48;7.40;;;;;;;1.23;78.79;101539.16;5009029;28;20042;-78
2021/04/24 04:25:37;;;;;;;14.07;7.00;;;;;;;1.29;78.64;101534.28;5011520;28;20053;-78
2021/04/24 04:28:03;;;;;;;14.47;7.47;;;;;;;1.34;77.78;101540.59;5024470;28;20042;-78
2021/04/24 04:30:31;;;;;;;15.63;7.50;;;;;;;1.38;77.52;101544.22;5008487;28;20061;-78
2021/04/24 04:32:57;;;;;;;16.33;7.17;;;;;;;1.41;77.82;101541.75;5009221;28;20157;-78
2021/04/24 04:35:23;;;;;;;15.67;8.00;;;;;;;1.45;77.53;101551.50;5008763;28;20450;-78
2021/04/24 04:37:48;;;;;;;14.73;7.10;;;;;;;1.49;77.86;101553.41;5010499;28;20087;-78
2021/04/24 04:40:15;;;;;;;14.23;7.40;;;;;;;1.56;77.42;101552.88;5006983;28;20112;-78
2021/04/24 04:42:41;;;;;;;17.23;7.33;;;;;;;1.59;76.91;101552.13;5025926;28;20038;-78
2021/04/24 04:45:07;;;;;;;22.05;8.43;;;;;;;1.66;76.78;101554.19;5011814;28;20109;-78
2021/04/24 04:47:33;;;;;;;16.65;7.80;;;;;;;1.71;77.04;101550.09;5010755;28;20034;-78
2021/04/24 04:49:59;;;;;;;15.00;7.18;;;;;;;1.81;76.69;101554.00;5011780;28;20029;-78
2021/04/24 04:52:24;;;;;;;18.00;7.27;;;;;;;1.85;76.24;101555.94;5007019;28;20046;-78
2021/04/24 04:54:50;;;;;;;19.00;7.65;;;;;;;1.91;76.12;101553.59;5007265;28;20030;-78
2021/04/24 04:57:15;;;;;;;17.10;7.00;;;;;;;2.01;75.72;101558.41;5010453;28;20084;-78
2021/04/24 04:59:41;;;;;;;20.17;7.57;;;;;;;2.11;75.65;101565.81;5027972;28;20041;-78
2021/04/24 05:02:06;;;;;;;11.73;6.43;;;;;;;2.21;75.40;101564.50;5010094;28;20043;-78
2021/04/24 05:04:33;;;;;;;19.83;7.07;;;;;;;2.34;74.70;101563.34;5010339;28;20040;-78
2021/04/24 05:06:58;;;;;;;12.05;5.50;;;;;;;2.49;74.17;101564.00;5014718;28;20038;-78
2021/04/24 05:09:24;;;;;;;15.02;6.13;;;;;;;2.58;74.19;101569.59;5054238;22;20085;-71
2021/04/24 05:11:49;;;;;;;15.50;6.38;;;;;;;2.71;73.13;101564.91;5030438;28;20443;-71
2021/04/24 05:14:16;;;;;;;10.77;5.18;;;;;;;2.83;73.45;101568.94;5029791;28;20382;-71
2021/04/24 05:16:41;;;;;;;14.60;6.18;;;;;;;2.91;73.08;101564.03;5031194;28;20084;-71
2021/04/24 05:19:07;;;;;;;13.63;5.97;;;;;;;3.02;72.84;101567.09;5030583;28;20041;-71
2021/04/24 05:21:33;;;;;;;11.77;6.05;;;;;;;3.08;72.77;101567.31;5034373;28;20099;-71
2021/04/24 05:23:58;;;;;;;16.30;6.43;;;;;;;3.17;72.52;101569.41;5035075;28;20445;-71
2021/04/24 05:26:23;;;;;;;14.43;6.18;;;;;;;3.25;72.18;101565.41;5034959;28;20120;-71
2021/04/24 05:28:49;;;;;;;11.60;6.22;;;;;;;3.32;71.83;101574.34;5034911;28;20037;-71
2021/04/24 05:31:14;;;;;;;14.20;6.57;;;;;;;3.35;71.40;101567.53;5034510;28;20047;-71
2021/04/24 05:33:39;;;;;;;14.00;6.65;;;;;;;3.39;71.19;101569.44;5035029;28;20033;-71
2021/04/24 05:36:09;;;;;;;14.45;6.78;;;;;;;3.43;71.47;101565.22;5030644;28;20485;-71
2021/04/24 05:38:35;;;;;;;13.55;6.43;;;;;;;3.47;71.28;101572.34;5030762;28;20041;-71
2021/04/24 05:41:00;;;;;;;19.90;6.82;;;;;;;3.54;71.43;101570.84;5034696;28;20087;-71
2021/04/24 05:43:26;;;;;;;13.50;6.88;;;;;;;3.59;71.30;101567.63;5034397;28;20489;-72
2021/04/24 05:45:51;;;;;;;15.57;7.00;;;;;;;3.65;70.86;101566.97;5033296;28;20402;-71
2021/04/24 05:48:16;;;;;;;17.55;6.80;;;;;;;3.72;71.02;101567.28;5033709;28;20548;-71
2021/04/24 05:50:42;;;;;;;15.50;6.78;;;;;;;3.80;70.61;101570.16;5033775;28;20033;-71
2021/04/24 05:53:09;;;;;;;16.02;6.40;;;;;;;3.88;70.27;101566.13;5034089;28;20038;-71
2021/04/24 05:55:35;;;;;;;18.63;7.03;;;;;;;3.89;70.33;101570.50;5030145;28;20037;-71
2021/04/24 05:58:01;;;;;;;15.90;6.53;;;;;;;3.97;70.25;101567.28;5038445;28;20041;-71
2021/04/24 06:00:26;;;;;;;13.40;6.57;;;;;;;4.07;69.95;101578.13;5035668;28;20034;-73
2021/04/24 06:02:52;;;;;;;14.00;6.53;;;;;;;4.16;69.68;101573.22;5033938;28;20069;-73
2021/04/24 06:05:18;;;;;;;17.35;6.72;;;;;;;4.25;69.36;101572.69;5034239;28;20072;-74
2021/04/24 06:07:44;;;;;;;15.55;6.28;;;;;;;4.30;69.65;101572.88;5034203;28;20041;-73
2021/04/24 06:10:12;;;;;;;13.32;6.38;;;;;;;4.39;68.77;101586.25;5033977;28;20033;-74
2021/04/24 06:12:39;;;;;;;19.70;7.78;;;;;;;4.43;69.59;101574.19;5033799;28;20104;-73
2021/04/24 06:15:06;;;;;;;20.45;7.53;;;;;;;4.51;69.44;101570.13;5030011;28;20441;-73
2021/04/24 06:17:32;;;;;;;14.15;6.50;;;;;;;4.62;69.37;101568.78;5033972;28;20048;-73
2021/04/24 06:19:57;;;;;;;14.07;7.10;;;;;;;4.73;69.50;101569.13;5033955;28;20505;-74
2021/04/24 06:22:22;;;;;;;13.32;7.07;;;;;;;4.86;69.41;101573.94;5033817;28;20409;-73
2021/04/24 06:24:48;;;;;;;15.80;7.00;;;;;;;5.00;69.22;101579.63;5033864;28;20551;-73
2021/04/24 06:27:13;;;;;;;13.80;7.38;;;;;;;5.13;68.97;101578.31;5033964;28;20377;-73
2021/04/24 06:29:39;;;;;;;16.10;7.57;;;;;;;5.21;68.76;101582.97;5033593;28;20452;-73
2021/04/24 06:32:04;;;;;;;13.52;7.18;;;;;;;5.38;68.22;101580.00;5033533;28;20492;-73
2021/04/24 06:34:30;;;;;;;13.63;7.07;;;;;;;5.47;68.17;101588.13;5033597;28;20034;-73
2021/04/24 06:36:55;;;;;;;15.40;7.72;;;;;;;5.52;68.67;101581.31;5035626;28;20088;-74
2021/04/24 06:39:21;;;;;;;17.63;6.90;;;;;;;5.55;67.41;101597.13;5042015;28;20040;-73
2021/04/24 06:41:46;;;;;;;16.95;7.97;;;;;;;5.65;68.04;101577.34;5043941;28;20032;-73
2021/04/24 06:44:12;;;;;;;16.90;7.55;;;;;;;5.79;68.00;101581.28;5043737;28;20040;-74
2021/04/24 06:46:38;;;;;;;17.33;7.15;;;;;;;5.93;67.65;101586.94;5043498;28;20104;-74
2021/04/24 06:49:03;;;;;;;15.88;7.70;;;;;;;6.04;67.22;101571.56;5044118;28;20033;-73
2021/04/24 06:51:28;;;;;;;16.20;7.15;;;;;;;6.11;66.76;101577.03;5041992;28;20385;-73
2021/04/24 06:53:54;;;;;;;18.70;8.45;;;;;;;6.24;65.77;101573.03;5043796;28;20553;-74
2021/04/24 06:56:19;;;;;;;14.80;8.15;;;;;;;6.26;66.06;101576.59;5042348;28;20045;-74
2021/04/24 06:58:45;;;;;;;13.70;7.72;;;;;;;6.35;65.52;101583.81;5043011;28;20052;-73
2021/04/24 07:01:10;;;;;;;20.30;8.43;;;;;;;6.40;65.78;101579.56;5028977;28;20504;-74
2021/04/24 07:03:37;;;;;;;16.70;7.30;;;;;;;6.46;65.22;101574.50;5031449;28;20118;-74
2021/04/24 07:06:04;;;;;;;15.30;8.00;;;;;;;6.46;65.40;101571.88;5006814;28;20025;-74
2021/04/24 07:08:29;;;;;;;18.35;8.10;;;;;;;6.53;64.71;101580.81;5032666;28;20393;-74
2021/04/24 07:10:54;;;;;;;18.50;7.43;;;;;;;6.61;65.11;101576.66;5033055;28;20033;-74
2021/04/24 07:13:19;;;;;;;16.15;8.10;;;;;;;6.68;65.25;101575.97;5032627;28;20513;-74
2021/04/24 07:15:45;;;;;;;18.48;8.75;;;;;;;6.77;65.15;101578.81;5031709;28;20043;-74
2021/04/24 07:18:11;;;;;;;15.15;8.52;;;;;;;6.75;64.74;101570.00;5031124;28;20124;-74
2021/04/24 07:20:36;;;;;;;18.80;8.82;;;;;;;7.00;64.14;101571.53;5032478;28;20033;-74
2021/04/24 07:23:02;;;;;;;15.30;7.63;;;;;;;7.26;63.93;101576.56;5031798;28;20041;-74
2021/04/24 07:25:27;;;;;;;19.95;8.52;;;;;;;7.54;63.10;101561.41;5032609;28;20025;-74
2021/04/24 07:27:52;;;;;;;19.30;7.70;;;;;;;7.91;62.90;101571.00;5032491;28;20242;-73
2021/04/24 07:30:18;;;;;;;15.35;7.72;;;;;;;8.30;60.24;101565.66;5032615;28;20033;-74
2021/04/24 07:32:43;;;;;;;16.67;7.82;;;;;;;8.39;60.96;101570.28;5032400;28;20094;-74
2021/04/24 07:35:10;;;;;;;17.15;8.68;;;;;;;8.51;59.74;101572.22;5035195;28;20569;-74
2021/04/24 07:37:35;;;;;;;20.13;7.70;;;;;;;8.40;59.66;101565.91;5041917;28;20029;-74
2021/04/24 07:40:00;;;;;;;17.38;8.00;;;;;;;8.34;60.16;101567.50;5041948;28;20041;-73
2021/04/24 07:42:26;;;;;;;16.58;7.68;;;;;;;8.29;60.83;101557.75;5040395;28;20045;-74
2021/04/24 07:44:51;;;;;;;17.08;7.53;;;;;;;8.15;61.65;101565.38;5042094;28;20045;-73
2021/04/24 07:47:17;;;;;;;16.88;7.85;;;;;;;8.10;61.92;101580.19;5041228;28;20032;-74
2021/04/24 07:49:42;;;;;;;17.90;8.43;;;;;;;8.17;61.88;101573.28;5039987;28;20501;-73
2021/04/24 07:52:09;;;;;;;17.50;8.68;;;;;;;8.15;61.67;101573.28;5037029;28;20064;-74
2021/04/24 07:54:42;;;;;;;14.70;8.15;;;;;;;8.10;61.88;101580.19;5041029;28;20021;-74
2021/04/24 07:57:14;;;;;;;14.85;7.68;;;;;;;8.12;61.99;101574.09;5042099;28;20542;-74
2021/04/24 07:59:40;;;;;;;16.17;8.02;;;;;;;8.19;62.16;101574.22;5040926;28;20072;-74
2021/04/24 08:02:06;;;;;;;15.60;7.90;;;;;;;8.29;61.54;101566.53;5041809;28;20032;-74
2021/04/24 08:04:32;;;;;;;17.15;8.48;;;;;;;8.47;61.15;101575.69;5040521;28;20489;-74
2021/04/24 08:06:57;;;;;;;15.70;7.45;;;;;;;8.62;60.83;101581.25;5041302;28;20108;-74
2021/04/24 08:09:23;;;;;;;15.15;7.50;;;;;;;8.67;59.87;101573.41;5032202;28;20045;-76
2021/04/24 08:11:48;;;;;;;13.70;8.00;;;;;;;8.76;60.02;101568.31;5031601;28;20036;-74
2021/04/24 08:14:14;;;;;;;16.98;8.40;;;;;;;8.97;59.50;101573.06;5031825;28;20378;-74
2021/04/24 08:16:39;;;;;;;15.20;8.02;;;;;;;9.15;58.77;101572.50;5031761;28;20038;-74
2021/04/24 08:19:04;;;;;;;16.55;7.43;;;;;;;9.22;58.28;101584.88;5031755;28;20119;-74
2021/04/24 08:21:30;;;;;;;14.65;7.70;;;;;;;9.04;58.75;101574.06;5031573;28;20045;-74
2021/04/24 08:23:59;;;;;;;18.35;8.70;;;;;;;9.20;58.80;101578.72;5031637;28;20041;-74
2021/04/24 08:26:30;;;;;;;13.85;7.95;;;;;;;9.30;58.53;101587.66;5031557;28;20086;-74
2021/04/24 08:28:55;;;;;;;16.75;8.18;;;;;;;9.27;57.82;101577.06;5031553;28;20128;-73
2021/04/24 08:31:21;;;;;;;15.65;8.60;;;;;;;9.15;58.74;101572.50;5031309;28;20112;-74
2021/04/24 08:33:47;;;;;;;15.52;7.57;;;;;;;9.26;58.33;101567.41;5031647;28;20555;-74
2021/04/24 08:36:12;;;;;;;15.90;8.68;;;;;;;9.35;57.53;101576.34;5031444;28;20034;-75
2021/04/24 08:38:38;;;;;;;16.00;9.10;;;;;;;9.35;57.99;101572.81;5026424;28;20100;-75
2021/04/24 08:41:04;;;;;;;15.48;8.45;;;;;;;9.52;56.79;101573.06;5031322;28;20049;-75
2021/04/24 08:43:30;;;;;;;16.35;7.93;;;;;;;9.61;58.33;101563.53;5031173;28;20026;-74
2021/04/24 08:46:00;;;;;;;15.40;7.97;;;;;;;9.82;57.28;101564.69;5031623;28;20459;-75
2021/04/24 08:48:25;;;;;;;14.30;8.90;;;;;;;10.05;57.84;101560.59;5031269;28;20045;-75
2021/04/24 08:50:50;;;;;;;15.63;8.82;;;;;;;10.06;57.32;101567.66;5031080;28;20051;-75
2021/04/24 08:53:20;;;;;;;16.20;8.70;;;;;;;9.94;57.91;101561.34;5029985;28;20064;-75
2021/04/24 08:55:46;;;;;;;14.55;7.97;;;;;;;9.94;57.18;101559.59;5029945;28;20049;-74
2021/04/24 08:58:11;;;;;;;16.20;8.98;;;;;;;9.96;56.71;101562.25;5031234;28;20039;-75
2021/04/24 09:00:39;;;;;;;16.90;9.18;;;;;;;9.93;57.78;101559.56;5031070;28;20029;-75
2021/04/24 09:03:06;;;;;;;10.95;6.22;;;;;;;9.95;50.02;101556.06;5029492;28;20083;-76
2021/04/24 09:05:32;;;;;;;8.63;5.32;;;;;;;9.88;49.90;101551.63;5031170;28;20045;-75
2021/04/24 09:08:03;;;;;;;13.73;6.32;;;;;;;10.12;51.29;101550.16;5031101;28;20033;-77
2021/04/24 09:10:33;;;;;;;12.32;7.05;;;;;;;10.16;51.31;101557.22;5027314;28;20382;-77
2021/04/24 09:12:58;;;;;;;14.13;7.60;;;;;;;10.20;52.11;101548.47;5027262;28;20041;-75
2021/04/24 09:15:25;;;;;;;12.35;7.50;;;;;;;10.37;53.24;101552.22;5030984;28;20036;-74
2021/04/24 09:17:52;;;;;;;11.50;8.02;;;;;;;10.42;53.24;101555.78;5030999;28;20397;-75
2021/04/24 09:20:20;;;;;;;16.23;8.38;;;;;;;10.52;53.20;101547.09;5030874;28;20033;-75
2021/04/24 09:22:59;;;;;;;15.23;8.57;;;;;;;10.52;51.56;101546.22;5030608;28;20045;-75
2021/04/24 09:25:29;;;;;;;13.65;7.97;;;;;;;10.62;53.61;101552.50;5031020;28;20040;-75
2021/04/24 09:27:55;;;;;;;13.95;8.07;;;;;;;10.83;51.69;101546.53;5026849;28;20036;-74
2021/04/24 09:30:23;;;;;;;9.70;6.72;;;;;;;10.91;49.44;101556.28;5030879;28;20037;-75
2021/04/24 09:32:48;;;;;;;12.30;7.15;;;;;;;10.93;49.62;101543.97;5030530;28;20048;-75
2021/04/24 09:35:20;;;;;;;10.65;7.47;;;;;;;11.07;49.29;101536.16;5030692;28;20038;-75
2021/04/24 09:38:00;;;;;;;11.05;7.03;;;;;;;11.22;48.70;101547.72;5030835;28;20033;-75
2021/04/24 09:40:25;;;;;;;13.15;6.63;;;;;;;11.13;47.62;101541.50;5026854;28;20048;-75
2021/04/24 09:42:58;;;;;;;9.90;6.53;;;;;;;11.31;47.97;101537.22;5030480;28;20030;-76
2021/04/24 09:45:27;;;;;;;;;;;;;;;11.25;47.24;101527.47;5031132;28;20026;-76
2021/04/24 09:47:53;;;;;;;12.57;6.65;;;;;;;11.19;46.95;101514.25;5029776;28;19913;-75
2021/04/24 09:50:21;;;;;;;10.57;6.00;;;;;;;11.58;45.01;101521.53;5029579;28;20047;-75
2021/04/24 09:52:46;;;;;;;10.23;6.28;;;;;;;12.01;43.36;101524.41;5029224;28;20033;-75
2021/04/24 09:55:35;;;;;;;9.98;6.40;;;;;;;12.26;42.45;101517.44;5029629;28;20112;-73
2021/04/24 09:58:01;;;;;;;11.80;6.32;;;;;;;12.19;41.60;101518.28;5027185;28;20033;-73
2021/04/24 10:00:28;;;;;;;9.05;6.00;;;;;;;12.06;41.20;101521.78;5028578;28;20549;-73
2021/04/24 10:02:53;;;;;;;9.48;5.82;;;;;;;12.01;42.57;101512.94;5028747;28;20037;-72
2021/04/24 10:05:20;;;;;;;10.07;5.97;;;;;;;12.10;42.21;101510.31;5032235;28;20032;-73
2021/04/24 10:07:48;;;;;;;10.13;5.72;;;;;;;12.17;42.46;101513.88;5032306;28;20037;-73
2021/04/24 10:10:35;;;;;;;9.38;5.10;;;;;;;12.31;40.49;101505.97;5032124;28;20413;-73
2021/04/24 10:13:04;;;;;;;10.48;5.18;;;;;;;12.41;40.16;101510.41;5029050;28;20033;-72
2021/04/24 10:15:43;;;;;;;8.50;4.82;;;;;;;12.31;39.44;101498.03;5031945;28;20069;-72
2021/04/24 10:18:12;;;;;;;9.88;5.05;;;;;;;11.93;39.69;101504.09;5032089;28;20643;-73
2021/04/24 10:20:38;;;;;;;8.43;4.97;;;;;;;11.82;40.95;101507.53;5033838;28;20048;-72
2021/04/24 10:23:07;;;;;;;9.65;5.35;;;;;;;11.91;40.15;101490.84;5032303;28;20132;-72
2021/04/24 10:25:34;;;;;;;9.32;5.22;;;;;;;12.16;41.43;101497.13;5034006;28;20037;-73
2021/04/24 10:28:00;;;;;;;9.90;5.82;;;;;;;12.42;40.44;101493.66;5033908;28;20034;-73
2021/04/24 10:30:26;;;;;;;8.40;5.30;;;;;;;12.35;40.18;101499.81;5032668;28;20091;-72
2021/04/24 10:32:55;;;;;;;10.73;5.53;;;;;;;12.51;40.62;101498.94;5033565;28;20431;-73
2021/04/24 10:35:22;;;;;;;11.77;5.50;;;;;;;12.71;38.45;101499.84;5033574;28;20034;-73
2021/04/24 10:37:50;;;;;;;11.30;5.50;;;;;;;12.66;39.62;101493.66;5033720;28;20065;-73
2021/04/24 10:40:16;;;;;;;8.38;5.22;;;;;;;12.74;38.64;101485.72;5032289;28;20044;-73
2021/04/24 10:42:44;;;;;;;11.75;5.65;;;;;;;12.55;38.51;101500.72;5033350;28;20039;-73
2021/04/24 10:45:10;;;;;;;8.82;4.88;;;;;;;12.67;39.44;101495.41;5033261;28;20026;-73
2021/04/24 10:47:40;;;;;;;9.57;5.47;;;;;;;12.89;38.65;101500.72;5033538;28;20132;-72
2021/04/24 10:50:15;;;;;;;9.80;5.30;;;;;;;12.89;38.64;101511.31;5033273;28;20068;-73
2021/04/24 10:52:43;;;;;;;8.85;5.00;;;;;;;12.52;39.67;101489.22;5033162;28;20405;-73
2021/04/24 10:55:19;;;;;;;9.73;5.10;;;;;;;12.22;39.21;101494.47;5033346;28;20042;-73
2021/04/24 10:57:53;;;;;;;10.20;5.05;;;;;;;11.97;39.72;101503.22;5033740;28;20404;-73
2021/04/24 11:00:22;;;;;;;11.10;4.80;;;;;;;12.22;40.25;101485.66;5033205;28;20128;-72
2021/04/24 11:02:56;;;;;;;9.70;5.22;;;;;;;12.62;40.99;101489.22;5032701;28;20087;-73
2021/04/24 11:05:27;;;;;;;8.32;5.05;;;;;;;12.90;39.13;101490.13;5029302;28;20485;-73
2021/04/24 11:08:11;;;;;;;8.52;5.15;;;;;;;13.02;38.62;101491.00;5029351;28;20095;-72
2021/04/24 11:11:05;;;;;;;10.27;5.47;;;;;;;13.03;38.72;101483.06;5031086;28;20113;-73
2021/04/24 11:13:33;;;;;;;8.60;5.13;;;;;;;13.04;38.24;101492.75;5030097;28;20040;-72
2021/04/24 11:16:02;;;;;;;9.55;4.95;;;;;;;12.71;38.81;101496.31;5031924;28;20091;-73
2021/04/24 11:18:28;;;;;;;8.40;5.25;;;;;;;12.45;39.60;101493.66;5032864;28;20120;-73
2021/04/24 11:21:04;;;;;;;9.60;5.93;;;;;;;12.29;39.60;101492.75;5032926;28;20505;-73